createdAt,value
2019-03-28T00:02:38.331Z,20.43
2019-03-28T00:05:17.400Z,18.70
2019-03-28T00:07:56.487Z,17.20
2019-03-28T00:10:35.570Z,19.17
2019-03-28T00:13:17.885Z,22.87
2019-03-28T00:15:56.936Z,20.73
2019-03-28T00:18:36.018Z,19.37
2019-03-28T00:21:15.070Z,18.17
2019-03-28T00:24:19.323Z,19.87
2019-03-28T00:26:58.400Z,17.20
2019-03-28T00:29:37.477Z,17.90
2019-03-28T00:32:20.165Z,20.83
2019-03-28T00:34:59.223Z,24.83
2019-03-28T00:37:38.301Z,25.50
2019-03-28T00:40:17.348Z,21.77
2019-03-28T00:42:56.490Z,19.90
2019-03-28T00:45:35.557Z,19.33
2019-03-28T00:48:14.666Z,20.33
2019-03-28T00:50:53.758Z,20.87
2019-03-28T00:53:39.041Z,21.47
2019-03-28T00:56:18.092Z,20.83
2019-03-28T00:58:57.178Z,20.10
2019-03-28T01:01:36.227Z,22.60
2019-03-28T01:04:18.542Z,25.70
2019-03-28T01:06:57.587Z,21.30
2019-03-28T01:09:36.668Z,24.47
2019-03-28T01:12:22.084Z,21.73
2019-03-28T01:15:01.152Z,18.70
2019-03-28T01:17:40.267Z,27.57
2019-03-28T01:20:19.322Z,20.83
2019-03-28T01:23:04.624Z,21.37
2019-03-28T01:25:43.694Z,19.20
2019-03-28T01:28:22.818Z,18.37
2019-03-28T01:31:02.018Z,24.53
2019-03-28T01:33:47.534Z,23.43
2019-03-28T01:36:26.634Z,19.63
2019-03-28T01:39:06.511Z,24.87
2019-03-28T01:41:45.575Z,26.00
2019-03-28T01:44:24.682Z,24.20
2019-03-28T01:47:03.773Z,20.60
2019-03-28T01:49:42.859Z,20.67
2019-03-28T01:52:28.348Z,21.70
2019-03-28T01:55:07.472Z,22.07
2019-03-28T01:57:46.592Z,24.10
2019-03-28T02:00:25.688Z,25.00
2019-03-28T02:03:04.885Z,20.90
2019-03-28T02:05:43.963Z,21.77
2019-03-28T02:08:24.875Z,23.90
2019-03-28T02:11:02.120Z,21.87
2019-03-28T02:13:41.372Z,24.50
2019-03-28T02:16:21.419Z,23.17
2019-03-28T02:18:59.709Z,27.13
2019-03-28T02:21:38.867Z,26.37
2019-03-28T02:24:18.060Z,30.03
2019-03-28T02:26:57.225Z,27.10
2019-03-28T02:29:36.362Z,31.20
2019-03-28T02:32:21.709Z,29.10
2019-03-28T02:35:00.895Z,29.97
2019-03-28T02:37:40.025Z,26.80
2019-03-28T02:40:19.209Z,29.10
2019-03-28T02:42:58.462Z,26.60
2019-03-28T02:45:37.575Z,32.00
2019-03-28T02:48:16.711Z,28.23
2019-03-28T02:50:55.900Z,31.73
2019-03-28T02:53:36.184Z,37.20
2019-03-28T02:56:15.984Z,30.90
2019-03-28T02:58:54.588Z,32.90
2019-03-28T03:01:33.797Z,31.10
2019-03-28T03:04:12.952Z,29.23
2019-03-28T03:06:52.102Z,30.97
2019-03-28T03:09:32.282Z,36.37
2019-03-28T03:12:33.542Z,29.33
2019-03-28T03:15:13.741Z,34.47
2019-03-28T03:17:52.866Z,29.37
2019-03-28T03:20:32.924Z,33.70
2019-03-28T03:23:17.721Z,33.13
2019-03-28T03:25:56.898Z,32.30
2019-03-28T03:28:36.076Z,33.97
2019-03-28T03:31:20.507Z,29.57
2019-03-28T03:33:54.257Z,29.37
2019-03-28T03:36:33.336Z,33.70
2019-03-28T03:39:13.852Z,31.03
2019-03-28T03:41:56.492Z,27.63
2019-03-28T03:44:35.679Z,32.47
2019-03-28T03:47:15.842Z,33.03
2019-03-28T03:49:54.992Z,35.50
2019-03-28T03:52:34.203Z,32.40
2019-03-28T03:55:13.346Z,32.97
2019-03-28T03:57:52.461Z,32.87
2019-03-28T04:00:36.649Z,37.67
2019-03-28T04:03:15.861Z,38.00
2019-03-28T04:05:58.091Z,35.40
2019-03-28T04:08:37.209Z,37.63
2019-03-28T04:11:16.333Z,41.63
2019-03-28T04:13:55.517Z,43.63
2019-03-28T04:16:34.705Z,35.77
2019-03-28T04:19:13.890Z,40.23
2019-03-28T04:21:53.167Z,45.77
2019-03-28T04:24:32.317Z,37.20
2019-03-28T04:27:11.441Z,39.63
2019-03-28T04:29:50.633Z,48.80
2019-03-28T04:32:29.837Z,39.93
2019-03-28T04:35:08.947Z,39.80
2019-03-28T04:37:48.005Z,44.57
2019-03-28T04:40:27.123Z,47.13
2019-03-28T04:43:06.320Z,37.37
2019-03-28T04:45:45.517Z,44.50
2019-03-28T04:48:24.631Z,44.67
2019-03-28T04:51:03.817Z,51.57
2019-03-28T04:53:42.983Z,45.63
2019-03-28T04:56:22.186Z,50.83
2019-03-28T04:59:01.372Z,44.70
2019-03-28T05:01:40.577Z,42.37
2019-03-28T05:04:21.272Z,49.83
2019-03-28T05:06:58.797Z,49.83
2019-03-28T05:09:37.883Z,42.70
2019-03-28T05:12:17.096Z,46.17
2019-03-28T05:14:56.257Z,40.80
2019-03-28T05:17:35.387Z,40.57
2019-03-28T05:20:19.123Z,47.03
2019-03-28T05:23:22.946Z,47.67
2019-03-28T05:30:06.609Z,47.67
2019-03-28T05:33:35.950Z,43.83
2019-03-28T06:06:24.625Z,49.53
2019-03-28T06:45:20.755Z,30.43
2019-03-28T06:48:20.909Z,30.90
2019-03-28T06:51:05.311Z,29.50
2019-03-28T06:53:48.176Z,30.97
2019-03-28T06:56:28.132Z,32.57
2019-03-28T06:59:11.102Z,34.73
2019-03-28T07:02:39.789Z,31.80
2019-03-28T07:05:34.238Z,34.87
2019-03-28T07:09:14.968Z,24.50
2019-03-28T07:15:53.103Z,30.33
2019-03-28T07:18:32.532Z,29.73
2019-03-28T07:21:12.267Z,32.50
2019-03-28T07:23:59.264Z,25.20
2019-03-28T07:29:50.664Z,25.37
2019-03-28T07:32:52.057Z,25.73
2019-03-28T07:35:32.057Z,26.70
2019-03-28T07:38:13.228Z,25.17
2019-03-28T07:41:41.760Z,26.23
2019-03-28T07:44:25.922Z,27.67
2019-03-28T07:47:30.400Z,25.97
2019-03-28T07:50:11.847Z,26.00
2019-03-28T07:53:04.281Z,23.70
2019-03-28T07:55:45.025Z,23.03
2019-03-28T07:58:55.494Z,29.17
2019-03-28T08:01:50.154Z,24.50
2019-03-28T08:04:29.636Z,26.07
2019-03-28T08:07:09.062Z,22.00
2019-03-28T08:09:48.490Z,28.50
2019-03-28T08:12:33.379Z,22.10
2019-03-28T08:15:16.170Z,24.43
2019-03-28T08:24:30.188Z,19.87
2019-03-28T08:51:22.993Z,22.63
2019-03-28T09:44:51.770Z,14.33
2019-03-28T09:54:30.062Z,20.83
2019-03-28T11:08:08.217Z,11.10
2019-03-28T11:14:18.107Z,9.47
2019-03-28T11:16:57.519Z,8.37
2019-03-28T11:20:17.817Z,10.13
2019-03-28T11:22:57.334Z,12.63
2019-03-28T11:25:36.797Z,11.00
2019-03-28T11:28:16.386Z,11.23
2019-03-28T11:30:57.944Z,11.23
2019-03-28T11:33:38.015Z,11.63
2019-03-28T11:36:17.311Z,9.73
2019-03-28T11:38:56.591Z,7.80
2019-03-28T11:41:36.206Z,10.43
2019-03-28T11:44:15.637Z,13.23
2019-03-28T11:46:57.977Z,6.37
2019-03-28T11:49:46.114Z,8.67
2019-03-28T11:52:47.198Z,10.07
2019-03-28T11:55:26.624Z,7.57
2019-03-28T11:58:05.963Z,9.63
2019-03-28T12:01:01.587Z,11.87
2019-03-28T12:03:40.857Z,7.77
2019-03-28T12:06:20.090Z,9.97
2019-03-28T12:08:59.409Z,7.87
2019-03-28T12:14:52.720Z,12.40
2019-03-28T12:17:31.867Z,13.23
2019-03-28T12:20:25.532Z,10.50
2019-03-28T12:23:04.781Z,13.80
2019-03-28T12:25:47.156Z,13.23
2019-03-28T12:28:23.056Z,13.10
2019-03-28T12:31:13.821Z,12.93
2019-03-28T12:33:53.064Z,11.97
2019-03-28T12:36:32.260Z,11.63
2019-03-28T12:39:15.371Z,16.80
2019-03-28T12:41:51.463Z,13.87
2019-03-28T12:44:30.732Z,12.63
2019-03-28T12:47:09.951Z,15.33
2019-03-28T12:50:04.320Z,11.50
2019-03-28T12:52:43.518Z,14.63
2019-03-28T12:55:22.666Z,12.53
2019-03-28T12:58:01.889Z,12.13
2019-03-28T13:00:42.640Z,18.13
2019-03-28T13:03:21.870Z,13.37
2019-03-28T13:06:01.005Z,13.07
2019-03-28T13:08:40.177Z,12.90
2019-03-28T13:11:19.695Z,14.33
2019-03-28T13:13:58.674Z,14.67
2019-03-28T13:16:37.822Z,14.43
2019-03-28T13:19:27.254Z,17.20
2019-03-28T13:22:06.529Z,15.60
2019-03-28T13:24:45.720Z,13.93
2019-03-28T13:27:24.847Z,15.93
2019-03-28T13:30:08.702Z,13.20
2019-03-28T13:32:47.877Z,12.53
2019-03-28T13:35:27.141Z,13.23
2019-03-28T13:38:06.273Z,12.10
2019-03-28T13:42:16.561Z,20.30
2019-03-28T13:44:55.871Z,20.47
2019-03-28T13:47:35.131Z,17.47
2019-03-28T13:50:21.457Z,15.50
2019-03-28T13:53:00.704Z,17.70
2019-03-28T13:55:39.944Z,13.77
2019-03-28T13:58:19.160Z,18.23
2019-03-28T14:01:16.287Z,13.87
2019-03-28T14:03:55.537Z,13.33
2019-03-28T14:06:34.780Z,12.57
2019-03-28T14:09:32.436Z,15.23
2019-03-28T14:12:11.644Z,12.97
2019-03-28T14:14:50.879Z,12.07
2019-03-28T14:17:30.091Z,10.00
2019-03-28T14:20:09.446Z,14.47
2019-03-28T14:22:48.671Z,14.03
2019-03-28T14:25:28.022Z,13.43
2019-03-28T14:28:07.181Z,11.13
2019-03-28T14:31:06.127Z,12.80
2019-03-28T14:33:45.383Z,14.40
2019-03-28T14:36:25.373Z,15.10
2019-03-28T14:39:05.955Z,15.50
2019-03-28T14:41:46.560Z,17.10
2019-03-28T14:44:24.420Z,14.60
2019-03-28T14:47:03.663Z,15.80
2019-03-28T14:49:44.010Z,19.47
2019-03-28T14:52:23.288Z,18.83
2019-03-28T14:55:02.517Z,15.10
2019-03-28T14:57:41.767Z,14.40
2019-03-28T15:01:03.299Z,14.97
2019-03-28T15:03:42.625Z,16.43
2019-03-28T15:06:21.852Z,14.10
2019-03-28T15:09:18.791Z,15.47
2019-03-28T15:11:57.999Z,13.97
2019-03-28T15:14:37.197Z,17.40
2019-03-28T15:17:16.425Z,14.87
2019-03-28T15:20:10.724Z,18.30
2019-03-28T15:22:50.044Z,33.47
2019-03-28T15:28:16.975Z,16.37
2019-03-28T15:30:56.137Z,18.30
2019-03-28T15:33:39.808Z,17.57
2019-03-28T15:36:14.632Z,13.50
2019-03-28T15:39:02.692Z,15.80
2019-03-28T15:41:41.779Z,17.53
2019-03-28T15:44:20.928Z,15.33
2019-03-28T15:47:00.026Z,14.10
2019-03-28T15:49:39.221Z,16.27
2019-03-28T15:52:18.304Z,14.93
2019-03-28T15:54:57.433Z,12.23
2019-03-28T15:57:36.545Z,13.20
2019-03-28T16:00:19.354Z,12.63
2019-03-28T16:02:58.419Z,13.20
2019-03-28T16:08:27.862Z,13.03
2019-03-28T16:11:06.540Z,17.50
2019-03-28T16:13:45.619Z,13.00
2019-03-28T16:16:24.745Z,12.80
2019-03-28T16:19:05.738Z,14.87
2019-03-28T16:21:44.092Z,11.40
2019-03-28T16:24:23.210Z,15.83
2019-03-28T16:29:46.460Z,12.37
2019-03-28T16:32:25.560Z,13.37
2019-03-28T16:35:04.658Z,13.00
2019-03-28T16:37:43.764Z,13.87
2019-03-28T16:40:22.990Z,14.50
2019-03-28T16:43:02.089Z,11.07
2019-03-28T16:45:52.703Z,10.90
2019-03-28T16:48:31.865Z,10.30
2019-03-28T16:51:10.982Z,10.87
2019-03-28T16:53:50.030Z,13.47
2019-03-28T16:56:29.145Z,12.20
2019-03-28T16:59:14.655Z,15.40
2019-03-28T17:01:53.803Z,14.03
2019-03-28T17:04:32.947Z,13.77
2019-03-28T17:07:12.096Z,11.87
2019-03-28T17:10:12.257Z,14.17
2019-03-28T17:12:51.398Z,11.37
2019-03-28T17:15:30.553Z,8.67
2019-03-28T17:18:09.677Z,10.20
2019-03-28T17:20:49.062Z,11.43
2019-03-28T17:23:28.194Z,9.80
2019-03-28T17:26:11.877Z,9.57
2019-03-28T17:28:51.114Z,10.33
2019-03-28T17:31:30.277Z,11.00
2019-03-28T17:34:09.436Z,10.87
2019-03-28T17:36:48.526Z,10.53
2019-03-28T17:39:27.714Z,10.33
2019-03-28T17:42:06.828Z,10.10
2019-03-28T17:44:48.263Z,9.90
2019-03-28T17:47:27.771Z,11.40
2019-03-28T17:50:08.155Z,10.07
2019-03-28T17:52:47.222Z,10.80
2019-03-28T17:55:26.381Z,10.83
2019-03-28T17:58:05.616Z,10.70
2019-03-28T18:00:45.898Z,9.83
2019-03-28T18:03:30.974Z,11.20
2019-03-28T18:06:04.169Z,14.70
2019-03-28T18:08:43.383Z,12.70
2019-03-28T18:11:22.598Z,13.20
2019-03-28T18:14:01.736Z,12.33
2019-03-28T18:19:26.698Z,14.33
2019-03-28T18:22:05.859Z,12.27
2019-03-28T18:24:45.047Z,15.30
2019-03-28T18:27:24.371Z,14.37
2019-03-28T18:30:20.364Z,12.87
2019-03-28T18:32:59.470Z,13.53
2019-03-28T18:35:38.654Z,14.73
2019-03-28T18:38:17.878Z,13.40
2019-03-28T18:40:57.007Z,13.47
2019-03-28T18:43:36.175Z,15.70
2019-03-28T18:46:15.401Z,14.53
2019-03-28T18:49:00.490Z,14.30
2019-03-28T18:51:39.683Z,15.13
2019-03-28T18:54:20.308Z,14.77
2019-03-28T18:56:57.972Z,15.23
2019-03-28T18:59:44.588Z,17.20
2019-03-28T19:02:23.706Z,17.13
2019-03-28T19:05:02.826Z,13.87
2019-03-28T19:07:41.969Z,19.23
2019-03-28T19:10:21.065Z,14.83
2019-03-28T19:13:00.209Z,16.17
2019-03-28T19:15:39.392Z,15.27
2019-03-28T19:18:21.659Z,14.57
2019-03-28T19:21:01.909Z,15.73
2019-03-28T19:23:40.659Z,17.50
2019-03-28T19:26:20.427Z,18.23
2019-03-28T19:29:01.887Z,19.47
2019-03-28T19:31:42.051Z,21.03
2019-03-28T19:34:22.056Z,22.27
2019-03-28T19:37:01.589Z,20.67
2019-03-28T19:39:45.966Z,17.53
2019-03-28T19:42:25.309Z,18.17
2019-03-28T19:45:04.604Z,21.97
2019-03-28T19:47:43.866Z,20.97
2019-03-28T19:50:31.060Z,18.67
2019-03-28T19:53:11.887Z,19.57
2019-03-28T19:55:49.866Z,16.60
2019-03-28T19:58:39.237Z,17.73
2019-03-28T20:01:18.402Z,20.67
2019-03-28T20:03:57.525Z,18.90
2019-03-28T20:06:36.991Z,20.87
2019-03-28T20:09:18.413Z,18.50
2019-03-28T20:12:01.419Z,20.40
2019-03-28T20:14:36.844Z,21.10
2019-03-28T20:17:16.103Z,19.97
2019-03-28T20:19:55.317Z,18.77
2019-03-28T20:22:34.832Z,17.37
2019-03-28T20:25:14.090Z,16.40
2019-03-28T20:28:18.289Z,17.37
2019-03-28T20:30:57.472Z,17.43
2019-03-28T20:33:37.781Z,14.97
2019-03-28T20:36:36.175Z,16.87
2019-03-28T20:39:03.992Z,16.33
2019-03-28T20:41:35.227Z,16.07
2019-03-28T20:44:14.287Z,17.07
2019-03-28T20:46:53.459Z,17.03
2019-03-28T20:49:32.599Z,15.33
2019-03-28T20:52:11.721Z,15.87
2019-03-28T20:54:51.669Z,17.43
2019-03-28T20:57:30.826Z,16.90
2019-03-28T21:00:10.043Z,16.83
2019-03-28T21:02:49.143Z,17.50
2019-03-28T21:05:28.211Z,17.87
2019-03-28T21:08:07.413Z,17.33
2019-03-28T21:10:46.490Z,18.50
2019-03-28T21:13:25.571Z,17.47
2019-03-28T21:16:04.643Z,18.97
2019-03-28T21:18:47.489Z,19.57
2019-03-28T21:21:26.580Z,18.80
2019-03-28T21:24:05.663Z,18.43
2019-03-28T21:26:44.744Z,18.00
2019-03-28T21:29:48.006Z,17.30
2019-03-28T21:32:13.885Z,19.30
2019-03-28T21:34:56.258Z,17.93
2019-03-28T21:37:37.241Z,21.03
2019-03-28T21:40:16.310Z,18.80
2019-03-28T21:42:55.428Z,16.93
2019-03-28T21:45:34.482Z,16.97
2019-03-28T21:48:13.656Z,17.07
2019-03-28T21:50:53.198Z,17.87
2019-03-28T21:53:33.031Z,17.67
2019-03-28T21:56:14.109Z,15.10
2019-03-28T21:58:57.076Z,16.83
2019-03-28T22:01:35.973Z,18.03
2019-03-28T22:04:15.051Z,18.70
2019-03-28T22:06:54.099Z,19.07
2019-03-28T22:09:33.209Z,28.60
2019-03-28T22:12:12.293Z,16.63
2019-03-28T22:14:51.329Z,18.50
2019-03-28T22:17:30.510Z,21.40
2019-03-28T22:20:10.025Z,21.03
2019-03-28T22:22:49.114Z,25.23
2019-03-28T22:25:28.197Z,25.33
2019-03-28T22:28:13.176Z,20.87
2019-03-28T22:30:52.264Z,20.37
2019-03-28T22:33:31.328Z,19.83
2019-03-28T22:36:10.386Z,21.63
2019-03-28T22:38:56.031Z,20.60
2019-03-28T22:41:35.079Z,21.63
2019-03-28T22:44:14.426Z,20.53
2019-03-28T22:46:53.179Z,21.53
2019-03-28T22:49:32.282Z,23.30
2019-03-28T22:52:11.347Z,25.03
2019-03-28T22:54:50.435Z,24.53
2019-03-28T22:57:30.718Z,25.50
2019-03-28T23:00:10.780Z,24.70
2019-03-28T23:02:49.868Z,28.30
2019-03-28T23:05:28.932Z,31.33
2019-03-28T23:08:08.092Z,27.70
2019-03-28T23:10:47.926Z,25.57
2019-03-28T23:13:26.910Z,26.47
2019-03-28T23:16:05.463Z,24.60
2019-03-28T23:18:44.611Z,23.07
2019-03-28T23:21:23.696Z,23.53
2019-03-28T23:24:02.773Z,23.30
2019-03-28T23:26:41.823Z,23.47
2019-03-28T23:29:20.918Z,24.70
2019-03-28T23:31:59.986Z,24.47
2019-03-28T23:34:39.071Z,22.17
2019-03-28T23:37:24.604Z,24.43
2019-03-28T23:39:57.266Z,24.07
2019-03-28T23:42:36.335Z,23.50
2019-03-28T23:45:16.899Z,21.60
2019-03-28T23:48:25.702Z,23.70
2019-03-28T23:51:04.769Z,27.23
2019-03-28T23:53:43.852Z,22.43
2019-03-28T23:56:22.922Z,22.20
2019-03-28T23:59:02.116Z,22.80
